CES156 ZSPD-EGLL
Flight info
| Callsign | CES156 |
|---|---|
| Flight time | N/A |
| Altitude | 30100 |
| Route | PIK82D PIKAS G330 PIMOL/K0913S0980 A593 DALIM W157 BEKDO/K0917S0950 W157 VYK G212 SOTMU/K0911S0980 B339 POLHO Y520 SERNA/K0902F340 R497 TODES/K0887F360 B228 HMN L870 RANVA/N0481F360 L870 RESMO DCT ETPIG/N0475F380 DCT GORAX DCT ALASA DCT IZZEX N872 PAM L980 LOGAN |
| Aircraft | A346/H-SDE2E3FGHIJ3J4J5M1RWXY/LB1D1 |
Departure
| Time | 2026-05-05 16:30 |
|---|---|
| Airport | Shanghai Pudong International Airport (ZSPD) |
Arrival
| Time | N/A |
|---|---|
| Airport | London Heathrow Airport (EGLL) |
| Time | Latitude | Longitude | Altitude | Speed | Heading |
|---|---|---|---|---|---|
| 2026-05-05 16:05 | 31.15001 | 121.79690 | 31 ft | 0 kts | 72° |
| 2026-05-05 16:21 | 31.14993 | 121.79658 | 30 ft | 4 kts | 72° |
| 2026-05-05 16:22 | 31.14956 | 121.79599 | 31 ft | 4 kts | 1° |
| 2026-05-05 16:22 | 31.14921 | 121.79609 | 29 ft | 4 kts | 342° |
| 2026-05-05 16:23 | 31.14912 | 121.79612 | 30 ft | 0 kts | 342° |
| 2026-05-05 16:24 | 31.14945 | 121.79600 | 31 ft | 13 kts | 342° |
| 2026-05-05 16:24 | 31.15060 | 121.79556 | 31 ft | 18 kts | 342° |
| 2026-05-05 16:24 | 31.15279 | 121.79473 | 31 ft | 18 kts | 342° |
| 2026-05-05 16:25 | 31.15394 | 121.79431 | 31 ft | 17 kts | 342° |
| 2026-05-05 16:25 | 31.15618 | 121.79346 | 31 ft | 15 kts | 342° |
| 2026-05-05 16:25 | 31.15679 | 121.79296 | 31 ft | 10 kts | 288° |
| 2026-05-05 16:26 | 31.15668 | 121.79112 | 31 ft | 12 kts | 308° |
| 2026-05-05 16:26 | 31.15895 | 121.79013 | 31 ft | 24 kts | 342° |
| 2026-05-05 16:27 | 31.16052 | 121.78954 | 30 ft | 23 kts | 342° |
| 2026-05-05 16:27 | 31.16158 | 121.78908 | 31 ft | 12 kts | 319° |
| 2026-05-05 16:27 | 31.16166 | 121.78817 | 31 ft | 13 kts | 253° |
| 2026-05-05 16:27 | 31.16139 | 121.78716 | 31 ft | 13 kts | 253° |
| 2026-05-05 16:28 | 31.16116 | 121.78636 | 31 ft | 7 kts | 238° |
| 2026-05-05 16:28 | 31.16074 | 121.78622 | 30 ft | 8 kts | 170° |
| 2026-05-05 16:28 | 31.16012 | 121.78642 | 30 ft | 18 kts | 163° |
| 2026-05-05 16:28 | 31.15709 | 121.78756 | 31 ft | 73 kts | 162° |
| 2026-05-05 16:29 | 31.15066 | 121.78999 | 32 ft | 120 kts | 162° |
| 2026-05-05 16:29 | 31.14126 | 121.79353 | 29 ft | 163 kts | 162° |
| 2026-05-05 16:29 | 31.12935 | 121.79798 | 63 ft | 192 kts | 162° |
| 2026-05-05 16:29 | 31.11655 | 121.80249 | 541 ft | 192 kts | 164° |
| 2026-05-05 16:30 | 31.10369 | 121.80670 | 1092 ft | 190 kts | 166° |
| 2026-05-05 16:30 | 31.09114 | 121.81077 | 1756 ft | 184 kts | 167° |
| 2026-05-05 16:30 | 31.07857 | 121.81480 | 2059 ft | 193 kts | 167° |
| 2026-05-05 16:30 | 31.06527 | 121.81901 | 2304 ft | 204 kts | 166° |
| 2026-05-05 16:31 | 31.05113 | 121.82354 | 2522 ft | 217 kts | 166° |
| 2026-05-05 16:31 | 31.03611 | 121.82841 | 2783 ft | 231 kts | 165° |
| 2026-05-05 16:31 | 31.02002 | 121.83261 | 3032 ft | 244 kts | 179° |
| 2026-05-05 16:31 | 31.00317 | 121.82869 | 3357 ft | 254 kts | 207° |
| 2026-05-05 16:32 | 30.98943 | 121.81552 | 3691 ft | 263 kts | 236° |
| 2026-05-05 16:32 | 30.98231 | 121.79571 | 4208 ft | 267 kts | 250° |
| 2026-05-05 16:32 | 30.97670 | 121.77505 | 4823 ft | 267 kts | 250° |
| 2026-05-05 16:32 | 30.97098 | 121.75432 | 5340 ft | 270 kts | 251° |
| 2026-05-05 16:33 | 30.96532 | 121.73330 | 5779 ft | 273 kts | 256° |
| 2026-05-05 16:33 | 30.96324 | 121.71131 | 5933 ft | 276 kts | 274° |
| 2026-05-05 16:33 | 30.96638 | 121.68900 | 6371 ft | 280 kts | 282° |
| 2026-05-05 16:33 | 30.97059 | 121.66697 | 7012 ft | 277 kts | 282° |
| 2026-05-05 16:34 | 30.97485 | 121.64495 | 7576 ft | 278 kts | 282° |
| 2026-05-05 16:34 | 30.97906 | 121.62279 | 8090 ft | 281 kts | 281° |
| 2026-05-05 16:34 | 30.98318 | 121.60069 | 8595 ft | 284 kts | 281° |
| 2026-05-05 16:34 | 30.98739 | 121.57811 | 9104 ft | 286 kts | 281° |
| 2026-05-05 16:35 | 30.99159 | 121.55531 | 9618 ft | 288 kts | 281° |
| 2026-05-05 16:35 | 30.99581 | 121.53231 | 10094 ft | 291 kts | 281° |
| 2026-05-05 16:35 | 31.00013 | 121.50893 | 10406 ft | 300 kts | 281° |
| 2026-05-05 16:35 | 31.00459 | 121.48460 | 10627 ft | 313 kts | 281° |
| 2026-05-05 16:36 | 31.00924 | 121.45928 | 10852 ft | 325 kts | 281° |
| 2026-05-05 16:36 | 31.01404 | 121.43297 | 11083 ft | 337 kts | 281° |
| 2026-05-05 16:36 | 31.01902 | 121.40573 | 11307 ft | 350 kts | 281° |
| 2026-05-05 16:36 | 31.02421 | 121.37747 | 11526 ft | 362 kts | 281° |
| 2026-05-05 16:37 | 31.02960 | 121.34829 | 11771 ft | 373 kts | 282° |
| 2026-05-05 16:37 | 31.03512 | 121.31837 | 12187 ft | 379 kts | 281° |
| 2026-05-05 16:37 | 31.04064 | 121.28827 | 12769 ft | 380 kts | 281° |
| 2026-05-05 16:37 | 31.04615 | 121.25809 | 13368 ft | 381 kts | 281° |
| 2026-05-05 16:38 | 31.05168 | 121.22770 | 13862 ft | 384 kts | 282° |
| 2026-05-05 16:38 | 31.05728 | 121.19710 | 14302 ft | 387 kts | 283° |
| 2026-05-05 16:38 | 31.06709 | 121.16775 | 14685 ft | 392 kts | 302° |
| 2026-05-05 16:38 | 31.08497 | 121.14379 | 15162 ft | 394 kts | 320° |
| 2026-05-05 16:39 | 31.10872 | 121.12776 | 15637 ft | 398 kts | 339° |
| 2026-05-05 16:39 | 31.13592 | 121.12144 | 16091 ft | 403 kts | 355° |
| 2026-05-05 16:39 | 31.16392 | 121.12004 | 16603 ft | 404 kts | 356° |
| 2026-05-05 16:39 | 31.19208 | 121.11870 | 17056 ft | 406 kts | 355° |
| 2026-05-05 16:40 | 31.22045 | 121.11724 | 17516 ft | 409 kts | 355° |
| 2026-05-05 16:40 | 31.24891 | 121.11570 | 17978 ft | 411 kts | 355° |
| 2026-05-05 16:40 | 31.27753 | 121.11410 | 18426 ft | 413 kts | 355° |
| 2026-05-05 16:40 | 31.30623 | 121.11245 | 18818 ft | 414 kts | 355° |
| 2026-05-05 16:41 | 31.33512 | 121.11090 | 19224 ft | 416 kts | 356° |
| 2026-05-05 16:41 | 31.36416 | 121.11089 | 19626 ft | 419 kts | 359° |
| 2026-05-05 16:41 | 31.39334 | 121.11249 | 20027 ft | 421 kts | 1° |
| 2026-05-05 16:41 | 31.42263 | 121.11368 | 20404 ft | 421 kts | 356° |
| 2026-05-05 16:42 | 31.45174 | 121.10973 | 20797 ft | 421 kts | 347° |
| 2026-05-05 16:42 | 31.47982 | 121.10025 | 21194 ft | 420 kts | 338° |
| 2026-05-05 16:42 | 31.50673 | 121.08677 | 21586 ft | 421 kts | 335° |
| 2026-05-05 16:42 | 31.53348 | 121.07255 | 21947 ft | 423 kts | 335° |
| 2026-05-05 16:43 | 31.56042 | 121.05810 | 22307 ft | 426 kts | 335° |
| 2026-05-05 16:43 | 31.58741 | 121.04364 | 22664 ft | 428 kts | 335° |
| 2026-05-05 16:43 | 31.61455 | 121.02913 | 23024 ft | 429 kts | 335° |
| 2026-05-05 16:43 | 31.64181 | 121.01457 | 23382 ft | 431 kts | 335° |
| 2026-05-05 16:44 | 31.66914 | 121.00000 | 23702 ft | 433 kts | 335° |
| 2026-05-05 16:44 | 31.69667 | 120.98530 | 24004 ft | 435 kts | 335° |
| 2026-05-05 16:44 | 31.72425 | 120.97057 | 24285 ft | 436 kts | 335° |
| 2026-05-05 16:44 | 31.75195 | 120.95579 | 24581 ft | 438 kts | 336° |
| 2026-05-05 16:45 | 31.77970 | 120.94094 | 24899 ft | 438 kts | 336° |
| 2026-05-05 16:45 | 31.80750 | 120.92611 | 25217 ft | 439 kts | 336° |
| 2026-05-05 16:45 | 31.83538 | 120.91124 | 25503 ft | 440 kts | 336° |
| 2026-05-05 16:45 | 31.86333 | 120.89630 | 25776 ft | 442 kts | 336° |
| 2026-05-05 16:46 | 31.89138 | 120.88130 | 26047 ft | 444 kts | 336° |
| 2026-05-05 16:46 | 31.91953 | 120.86621 | 26322 ft | 445 kts | 336° |
| 2026-05-05 16:46 | 31.94775 | 120.85108 | 26592 ft | 447 kts | 336° |
| 2026-05-05 16:46 | 31.97607 | 120.83586 | 26861 ft | 448 kts | 336° |
| 2026-05-05 16:47 | 32.00406 | 120.82080 | 27110 ft | 450 kts | 336° |
| 2026-05-05 16:47 | 32.03299 | 120.80525 | 27373 ft | 451 kts | 336° |
| 2026-05-05 16:47 | 32.06119 | 120.79008 | 27619 ft | 453 kts | 336° |
| 2026-05-05 16:47 | 32.09025 | 120.77442 | 27902 ft | 453 kts | 336° |
| 2026-05-05 16:48 | 32.11779 | 120.75735 | 28213 ft | 454 kts | 326° |
| 2026-05-05 16:48 | 32.14149 | 120.73265 | 28526 ft | 457 kts | 313° |
| 2026-05-05 16:48 | 32.15956 | 120.70167 | 28826 ft | 461 kts | 300° |
| 2026-05-05 16:48 | 32.17097 | 120.66606 | 29050 ft | 468 kts | 286° |
| 2026-05-05 16:49 | 32.17570 | 120.62776 | 29265 ft | 473 kts | 279° |
| 2026-05-05 16:49 | 32.17897 | 120.58905 | 29544 ft | 474 kts | 279° |
| 2026-05-05 16:49 | 32.18214 | 120.55025 | 29771 ft | 475 kts | 279° |
| 2026-05-05 16:49 | 32.18532 | 120.51131 | 29904 ft | 476 kts | 279° |
| 2026-05-05 16:50 | 32.19172 | 120.43328 | 29968 ft | 477 kts | 279° |
| 2026-05-05 16:50 | 32.19814 | 120.35478 | 30051 ft | 483 kts | 279° |
| 2026-05-05 16:51 | 32.20137 | 120.31523 | 30267 ft | 483 kts | 279° |
| 2026-05-05 16:51 | 32.20458 | 120.27578 | 30555 ft | 482 kts | 279° |
| 2026-05-05 16:51 | 32.20780 | 120.23643 | 30858 ft | 480 kts | 279° |
| 2026-05-05 16:51 | 32.21101 | 120.19723 | 31158 ft | 478 kts | 279° |
| 2026-05-05 16:52 | 32.21420 | 120.15813 | 31420 ft | 477 kts | 279° |
| 2026-05-05 16:52 | 32.21737 | 120.11913 | 31681 ft | 476 kts | 279° |
| 2026-05-05 16:52 | 32.22049 | 120.08018 | 31912 ft | 475 kts | 279° |
| 2026-05-05 16:52 | 32.22362 | 120.04127 | 31945 ft | 475 kts | 279° |
| 2026-05-05 16:53 | 32.22990 | 119.96322 | 31957 ft | 475 kts | 279° |
| 2026-05-05 16:53 | 32.23636 | 119.88553 | 31947 ft | 473 kts | 283° |
| 2026-05-05 16:54 | 32.25343 | 119.81181 | 31932 ft | 465 kts | 297° |
| 2026-05-05 16:54 | 32.28495 | 119.74611 | 31946 ft | 456 kts | 311° |
| 2026-05-05 16:55 | 32.32824 | 119.69226 | 31945 ft | 450 kts | 323° |
| 2026-05-05 16:55 | 32.37838 | 119.64818 | 31946 ft | 448 kts | 327° |
| 2026-05-05 16:56 | 32.42904 | 119.60510 | 31943 ft | 448 kts | 327° |
| 2026-05-05 16:56 | 32.47964 | 119.56193 | 31940 ft | 448 kts | 327° |
| 2026-05-05 16:57 | 32.48817 | 119.55459 | 31940 ft | 448 kts | 326° |